sensor_id;sensor_type;location;lat;lon;timestamp;P1;durP1;ratioP1;P2;durP2;ratioP2
83447;SDS011;73376;45.472;-73.568;2023-12-20T00:02:04;2.03;;;0.50;;
83447;SDS011;73376;45.472;-73.568;2023-12-20T00:04:30;0.60;;;0.40;;
83447;SDS011;73376;45.472;-73.568;2023-12-20T00:07:00;1.08;;;0.57;;
83447;SDS011;73376;45.472;-73.568;2023-12-20T00:09:26;1.47;;;0.47;;
83447;SDS011;73376;45.472;-73.568;2023-12-20T00:11:52;1.43;;;0.70;;
83447;SDS011;73376;45.472;-73.568;2023-12-20T00:14:18;1.23;;;0.87;;
83447;SDS011;73376;45.472;-73.568;2023-12-20T00:16:45;1.47;;;0.57;;
83447;SDS011;73376;45.472;-73.568;2023-12-20T00:19:11;2.93;;;0.73;;
83447;SDS011;73376;45.472;-73.568;2023-12-20T00:21:37;2.43;;;0.70;;
83447;SDS011;73376;45.472;-73.568;2023-12-20T00:24:06;1.47;;;0.47;;
83447;SDS011;73376;45.472;-73.568;2023-12-20T00:26:35;0.87;;;0.60;;
83447;SDS011;73376;45.472;-73.568;2023-12-20T00:29:01;1.27;;;0.60;;
83447;SDS011;73376;45.472;-73.568;2023-12-20T00:31:27;1.10;;;0.50;;
83447;SDS011;73376;45.472;-73.568;2023-12-20T00:33:53;3.27;;;0.70;;
83447;SDS011;73376;45.472;-73.568;2023-12-20T00:36:19;2.90;;;0.73;;
83447;SDS011;73376;45.472;-73.568;2023-12-20T00:38:46;2.50;;;0.90;;
83447;SDS011;73376;45.472;-73.568;2023-12-20T00:41:11;2.83;;;1.13;;
83447;SDS011;73376;45.472;-73.568;2023-12-20T00:43:37;6.23;;;1.97;;
83447;SDS011;73376;45.472;-73.568;2023-12-20T00:46:03;1.53;;;1.00;;
83447;SDS011;73376;45.472;-73.568;2023-12-20T00:48:29;1.27;;;1.00;;
83447;SDS011;73376;45.472;-73.568;2023-12-20T00:50:56;4.17;;;1.20;;
83447;SDS011;73376;45.472;-73.568;2023-12-20T00:53:22;3.60;;;1.70;;
83447;SDS011;73376;45.472;-73.568;2023-12-20T00:55:48;2.90;;;1.20;;
83447;SDS011;73376;45.472;-73.568;2023-12-20T00:58:15;2.43;;;1.30;;
83447;SDS011;73376;45.472;-73.568;2023-12-20T01:00:41;3.23;;;1.33;;
83447;SDS011;73376;45.472;-73.568;2023-12-20T01:03:08;2.43;;;1.30;;
83447;SDS011;73376;45.472;-73.568;2023-12-20T01:05:34;3.23;;;1.50;;
83447;SDS011;73376;45.472;-73.568;2023-12-20T01:08:00;5.33;;;1.37;;
83447;SDS011;73376;45.472;-73.568;2023-12-20T01:10:28;3.27;;;1.50;;
83447;SDS011;73376;45.472;-73.568;2023-12-20T01:12:57;1.97;;;1.20;;
83447;SDS011;73376;45.472;-73.568;2023-12-20T01:15:23;5.23;;;1.40;;
83447;SDS011;73376;45.472;-73.568;2023-12-20T01:17:49;3.03;;;1.40;;
83447;SDS011;73376;45.472;-73.568;2023-12-20T01:20:17;3.17;;;1.40;;
83447;SDS011;73376;45.472;-73.568;2023-12-20T01:22:45;5.30;;;1.50;;
83447;SDS011;73376;45.472;-73.568;2023-12-20T01:25:11;2.57;;;1.33;;
83447;SDS011;73376;45.472;-73.568;2023-12-20T01:27:39;4.20;;;1.60;;
83447;SDS011;73376;45.472;-73.568;2023-12-20T01:30:05;4.70;;;1.70;;
83447;SDS011;73376;45.472;-73.568;2023-12-20T01:32:32;3.47;;;1.50;;
83447;SDS011;73376;45.472;-73.568;2023-12-20T01:35:00;2.80;;;1.17;;
83447;SDS011;73376;45.472;-73.568;2023-12-20T01:37:26;2.47;;;1.20;;
83447;SDS011;73376;45.472;-73.568;2023-12-20T01:39:54;1.60;;;1.20;;
83447;SDS011;73376;45.472;-73.568;2023-12-20T01:42:22;5.83;;;1.60;;
83447;SDS011;73376;45.472;-73.568;2023-12-20T01:44:48;2.43;;;1.13;;
83447;SDS011;73376;45.472;-73.568;2023-12-20T01:47:14;2.13;;;1.10;;
83447;SDS011;73376;45.472;-73.568;2023-12-20T01:49:40;1.53;;;1.10;;
83447;SDS011;73376;45.472;-73.568;2023-12-20T01:52:06;1.73;;;0.90;;
83447;SDS011;73376;45.472;-73.568;2023-12-20T01:54:34;2.27;;;1.20;;
83447;SDS011;73376;45.472;-73.568;2023-12-20T01:57:01;2.40;;;1.10;;
83447;SDS011;73376;45.472;-73.568;2023-12-20T01:59:28;1.47;;;1.03;;
83447;SDS011;73376;45.472;-73.568;2023-12-20T02:01:55;1.97;;;1.10;;
83447;SDS011;73376;45.472;-73.568;2023-12-20T02:04:21;1.27;;;1.17;;
83447;SDS011;73376;45.472;-73.568;2023-12-20T02:06:49;3.10;;;1.20;;
83447;SDS011;73376;45.472;-73.568;2023-12-20T02:09:18;1.48;;;1.10;;
83447;SDS011;73376;45.472;-73.568;2023-12-20T02:11:48;1.20;;;1.00;;
83447;SDS011;73376;45.472;-73.568;2023-12-20T02:14:14;2.80;;;0.90;;
83447;SDS011;73376;45.472;-73.568;2023-12-20T02:16:43;4.63;;;1.30;;
83447;SDS011;73376;45.472;-73.568;2023-12-20T02:19:10;2.70;;;1.00;;
83447;SDS011;73376;45.472;-73.568;2023-12-20T02:21:40;1.67;;;0.80;;
83447;SDS011;73376;45.472;-73.568;2023-12-20T02:24:06;3.10;;;1.00;;
83447;SDS011;73376;45.472;-73.568;2023-12-20T02:26:34;2.07;;;1.30;;
83447;SDS011;73376;45.472;-73.568;2023-12-20T02:29:00;1.47;;;1.10;;
83447;SDS011;73376;45.472;-73.568;2023-12-20T02:31:27;2.43;;;1.10;;
83447;SDS011;73376;45.472;-73.568;2023-12-20T02:33:53;2.70;;;1.00;;
83447;SDS011;73376;45.472;-73.568;2023-12-20T02:36:19;1.70;;;1.00;;
83447;SDS011;73376;45.472;-73.568;2023-12-20T02:38:45;2.13;;;0.97;;
83447;SDS011;73376;45.472;-73.568;2023-12-20T02:41:12;4.03;;;1.20;;
83447;SDS011;73376;45.472;-73.568;2023-12-20T02:43:38;3.53;;;1.60;;
83447;SDS011;73376;45.472;-73.568;2023-12-20T02:46:05;1.40;;;1.07;;
83447;SDS011;73376;45.472;-73.568;2023-12-20T02:48:30;1.70;;;1.00;;
83447;SDS011;73376;45.472;-73.568;2023-12-20T02:50:59;1.73;;;1.10;;
83447;SDS011;73376;45.472;-73.568;2023-12-20T02:53:27;3.33;;;0.80;;
83447;SDS011;73376;45.472;-73.568;2023-12-20T02:55:53;1.80;;;0.90;;
83447;SDS011;73376;45.472;-73.568;2023-12-20T02:58:19;1.87;;;0.80;;
83447;SDS011;73376;45.472;-73.568;2023-12-20T03:00:45;2.83;;;1.20;;
83447;SDS011;73376;45.472;-73.568;2023-12-20T03:03:11;1.37;;;0.73;;
83447;SDS011;73376;45.472;-73.568;2023-12-20T03:05:39;2.53;;;0.97;;
83447;SDS011;73376;45.472;-73.568;2023-12-20T03:08:06;3.47;;;1.20;;
83447;SDS011;73376;45.472;-73.568;2023-12-20T03:10:32;2.17;;;0.60;;
83447;SDS011;73376;45.472;-73.568;2023-12-20T03:13:00;1.07;;;0.53;;
83447;SDS011;73376;45.472;-73.568;2023-12-20T03:15:26;1.70;;;0.80;;
83447;SDS011;73376;45.472;-73.568;2023-12-20T03:17:52;2.40;;;0.50;;
83447;SDS011;73376;45.472;-73.568;2023-12-20T03:20:18;3.23;;;0.70;;
83447;SDS011;73376;45.472;-73.568;2023-12-20T03:22:44;4.23;;;0.90;;
83447;SDS011;73376;45.472;-73.568;2023-12-20T03:25:13;1.10;;;0.70;;
83447;SDS011;73376;45.472;-73.568;2023-12-20T03:27:41;0.73;;;0.57;;
83447;SDS011;73376;45.472;-73.568;2023-12-20T03:30:07;2.10;;;1.00;;
83447;SDS011;73376;45.472;-73.568;2023-12-20T03:32:37;2.30;;;0.90;;
83447;SDS011;73376;45.472;-73.568;2023-12-20T03:35:03;1.50;;;0.80;;
83447;SDS011;73376;45.472;-73.568;2023-12-20T03:37:29;1.07;;;0.70;;
83447;SDS011;73376;45.472;-73.568;2023-12-20T03:39:55;2.60;;;0.63;;
83447;SDS011;73376;45.472;-73.568;2023-12-20T03:42:21;1.77;;;0.97;;
83447;SDS011;73376;45.472;-73.568;2023-12-20T03:44:47;2.03;;;0.80;;
83447;SDS011;73376;45.472;-73.568;2023-12-20T03:47:13;2.07;;;0.80;;
83447;SDS011;73376;45.472;-73.568;2023-12-20T03:49:39;2.23;;;0.70;;
83447;SDS011;73376;45.472;-73.568;2023-12-20T03:52:07;2.20;;;1.13;;
83447;SDS011;73376;45.472;-73.568;2023-12-20T03:54:34;3.10;;;0.93;;
83447;SDS011;73376;45.472;-73.568;2023-12-20T03:57:01;1.27;;;0.80;;
83447;SDS011;73376;45.472;-73.568;2023-12-20T03:59:29;2.87;;;0.80;;
83447;SDS011;73376;45.472;-73.568;2023-12-20T04:01:59;2.80;;;0.83;;
83447;SDS011;73376;45.472;-73.568;2023-12-20T04:04:25;1.53;;;0.83;;
83447;SDS011;73376;45.472;-73.568;2023-12-20T04:06:51;1.93;;;0.70;;
83447;SDS011;73376;45.472;-73.568;2023-12-20T04:09:20;1.37;;;0.60;;
83447;SDS011;73376;45.472;-73.568;2023-12-20T04:11:46;1.00;;;0.80;;
83447;SDS011;73376;45.472;-73.568;2023-12-20T04:14:12;1.43;;;0.60;;
83447;SDS011;73376;45.472;-73.568;2023-12-20T04:16:38;4.90;;;0.80;;
83447;SDS011;73376;45.472;-73.568;2023-12-20T04:19:04;1.93;;;0.70;;
83447;SDS011;73376;45.472;-73.568;2023-12-20T04:21:30;2.93;;;0.90;;
83447;SDS011;73376;45.472;-73.568;2023-12-20T04:23:58;1.53;;;0.77;;
83447;SDS011;73376;45.472;-73.568;2023-12-20T04:26:27;5.73;;;0.70;;
83447;SDS011;73376;45.472;-73.568;2023-12-20T04:28:54;3.80;;;0.83;;
83447;SDS011;73376;45.472;-73.568;2023-12-20T04:31:20;3.77;;;0.93;;
83447;SDS011;73376;45.472;-73.568;2023-12-20T04:33:46;1.27;;;0.53;;
83447;SDS011;73376;45.472;-73.568;2023-12-20T04:36:12;1.83;;;0.60;;
83447;SDS011;73376;45.472;-73.568;2023-12-20T04:38:38;5.47;;;0.83;;
83447;SDS011;73376;45.472;-73.568;2023-12-20T04:41:04;3.10;;;1.03;;
83447;SDS011;73376;45.472;-73.568;2023-12-20T04:43:30;1.30;;;0.60;;
83447;SDS011;73376;45.472;-73.568;2023-12-20T04:45:56;1.80;;;0.70;;
83447;SDS011;73376;45.472;-73.568;2023-12-20T04:48:25;3.43;;;0.80;;
83447;SDS011;73376;45.472;-73.568;2023-12-20T04:50:53;1.40;;;0.80;;
83447;SDS011;73376;45.472;-73.568;2023-12-20T04:53:19;1.10;;;0.80;;
83447;SDS011;73376;45.472;-73.568;2023-12-20T04:55:45;1.17;;;0.63;;
83447;SDS011;73376;45.472;-73.568;2023-12-20T04:58:11;3.20;;;1.07;;
83447;SDS011;73376;45.472;-73.568;2023-12-20T05:00:37;3.03;;;0.70;;
83447;SDS011;73376;45.472;-73.568;2023-12-20T05:03:03;3.20;;;0.80;;
83447;SDS011;73376;45.472;-73.568;2023-12-20T05:05:29;2.17;;;0.90;;
83447;SDS011;73376;45.472;-73.568;2023-12-20T05:07:55;1.87;;;0.87;;
83447;SDS011;73376;45.472;-73.568;2023-12-20T05:10:21;2.00;;;0.80;;
83447;SDS011;73376;45.472;-73.568;2023-12-20T05:12:47;8.87;;;1.10;;
83447;SDS011;73376;45.472;-73.568;2023-12-20T05:15:13;2.60;;;0.77;;
83447;SDS011;73376;45.472;-73.568;2023-12-20T05:17:41;2.20;;;0.70;;
83447;SDS011;73376;45.472;-73.568;2023-12-20T05:20:08;4.20;;;0.97;;
83447;SDS011;73376;45.472;-73.568;2023-12-20T05:22:34;2.93;;;0.67;;
83447;SDS011;73376;45.472;-73.568;2023-12-20T05:25:00;2.30;;;0.70;;
83447;SDS011;73376;45.472;-73.568;2023-12-20T05:27:26;2.37;;;0.60;;
83447;SDS011;73376;45.472;-73.568;2023-12-20T05:29:52;1.07;;;0.67;;
83447;SDS011;73376;45.472;-73.568;2023-12-20T05:32:20;1.93;;;0.90;;
83447;SDS011;73376;45.472;-73.568;2023-12-20T05:34:46;2.30;;;1.00;;
83447;SDS011;73376;45.472;-73.568;2023-12-20T05:37:12;2.13;;;0.80;;
83447;SDS011;73376;45.472;-73.568;2023-12-20T05:39:40;3.80;;;0.80;;
83447;SDS011;73376;45.472;-73.568;2023-12-20T05:42:06;2.50;;;1.03;;
83447;SDS011;73376;45.472;-73.568;2023-12-20T05:44:32;4.17;;;0.70;;
83447;SDS011;73376;45.472;-73.568;2023-12-20T05:46:58;3.47;;;0.70;;
83447;SDS011;73376;45.472;-73.568;2023-12-20T05:49:24;1.13;;;0.70;;
83447;SDS011;73376;45.472;-73.568;2023-12-20T05:51:50;1.00;;;0.70;;
83447;SDS011;73376;45.472;-73.568;2023-12-20T05:54:16;3.80;;;0.67;;
83447;SDS011;73376;45.472;-73.568;2023-12-20T05:56:42;3.37;;;0.87;;
83447;SDS011;73376;45.472;-73.568;2023-12-20T05:59:08;3.90;;;0.90;;
83447;SDS011;73376;45.472;-73.568;2023-12-20T06:01:34;2.00;;;0.70;;
83447;SDS011;73376;45.472;-73.568;2023-12-20T06:04:00;0.70;;;0.60;;
83447;SDS011;73376;45.472;-73.568;2023-12-20T06:06:26;2.30;;;0.70;;
83447;SDS011;73376;45.472;-73.568;2023-12-20T06:08:52;2.10;;;0.73;;
83447;SDS011;73376;45.472;-73.568;2023-12-20T06:11:20;5.97;;;0.97;;
83447;SDS011;73376;45.472;-73.568;2023-12-20T06:13:46;3.47;;;0.80;;
83447;SDS011;73376;45.472;-73.568;2023-12-20T06:16:14;3.20;;;0.70;;
83447;SDS011;73376;45.472;-73.568;2023-12-20T06:18:40;1.87;;;0.63;;
83447;SDS011;73376;45.472;-73.568;2023-12-20T06:21:09;2.33;;;0.80;;
83447;SDS011;73376;45.472;-73.568;2023-12-20T06:23:38;1.97;;;0.87;;
83447;SDS011;73376;45.472;-73.568;2023-12-20T06:26:04;0.87;;;0.60;;
83447;SDS011;73376;45.472;-73.568;2023-12-20T06:28:33;0.87;;;0.60;;
83447;SDS011;73376;45.472;-73.568;2023-12-20T06:30:59;2.43;;;0.70;;
83447;SDS011;73376;45.472;-73.568;2023-12-20T06:33:25;3.97;;;0.70;;
83447;SDS011;73376;45.472;-73.568;2023-12-20T06:35:52;2.67;;;0.80;;
83447;SDS011;73376;45.472;-73.568;2023-12-20T06:38:18;2.07;;;0.70;;
83447;SDS011;73376;45.472;-73.568;2023-12-20T06:40:44;1.70;;;0.90;;
83447;SDS011;73376;45.472;-73.568;2023-12-20T06:43:11;2.57;;;1.00;;
83447;SDS011;73376;45.472;-73.568;2023-12-20T06:45:38;3.20;;;0.87;;
83447;SDS011;73376;45.472;-73.568;2023-12-20T06:48:04;1.83;;;0.90;;
83447;SDS011;73376;45.472;-73.568;2023-12-20T06:50:30;2.57;;;1.00;;
83447;SDS011;73376;45.472;-73.568;2023-12-20T06:52:56;1.07;;;0.90;;
83447;SDS011;73376;45.472;-73.568;2023-12-20T06:55:22;3.10;;;0.83;;
83447;SDS011;73376;45.472;-73.568;2023-12-20T06:57:48;2.27;;;1.10;;
83447;SDS011;73376;45.472;-73.568;2023-12-20T07:00:14;1.90;;;0.93;;
83447;SDS011;73376;45.472;-73.568;2023-12-20T07:02:41;3.33;;;0.90;;
83447;SDS011;73376;45.472;-73.568;2023-12-20T07:05:09;3.10;;;0.80;;
83447;SDS011;73376;45.472;-73.568;2023-12-20T07:07:37;3.07;;;1.00;;
83447;SDS011;73376;45.472;-73.568;2023-12-20T07:10:03;2.03;;;0.90;;
83447;SDS011;73376;45.472;-73.568;2023-12-20T07:12:29;1.27;;;0.80;;
83447;SDS011;73376;45.472;-73.568;2023-12-20T07:14:55;2.47;;;1.10;;
83447;SDS011;73376;45.472;-73.568;2023-12-20T07:17:21;2.93;;;1.07;;
83447;SDS011;73376;45.472;-73.568;2023-12-20T07:19:48;2.63;;;0.90;;
83447;SDS011;73376;45.472;-73.568;2023-12-20T07:22:14;2.60;;;0.83;;
83447;SDS011;73376;45.472;-73.568;2023-12-20T07:24:42;2.20;;;0.87;;
83447;SDS011;73376;45.472;-73.568;2023-12-20T07:27:08;1.60;;;0.70;;
83447;SDS011;73376;45.472;-73.568;2023-12-20T07:29:34;1.57;;;0.90;;
83447;SDS011;73376;45.472;-73.568;2023-12-20T07:32:00;3.03;;;1.00;;
83447;SDS011;73376;45.472;-73.568;2023-12-20T07:34:26;2.30;;;1.00;;
83447;SDS011;73376;45.472;-73.568;2023-12-20T07:36:52;5.23;;;0.90;;
83447;SDS011;73376;45.472;-73.568;2023-12-20T07:39:18;3.63;;;1.00;;
83447;SDS011;73376;45.472;-73.568;2023-12-20T07:41:44;1.63;;;0.80;;
83447;SDS011;73376;45.472;-73.568;2023-12-20T07:44:10;1.90;;;1.00;;
83447;SDS011;73376;45.472;-73.568;2023-12-20T07:46:36;1.90;;;0.90;;
83447;SDS011;73376;45.472;-73.568;2023-12-20T07:49:02;3.30;;;1.30;;
83447;SDS011;73376;45.472;-73.568;2023-12-20T07:51:28;2.00;;;1.00;;
83447;SDS011;73376;45.472;-73.568;2023-12-20T07:53:54;4.10;;;1.50;;
83447;SDS011;73376;45.472;-73.568;2023-12-20T07:56:20;2.40;;;1.20;;
83447;SDS011;73376;45.472;-73.568;2023-12-20T07:58:46;1.43;;;0.97;;
83447;SDS011;73376;45.472;-73.568;2023-12-20T08:01:13;1.80;;;1.10;;
83447;SDS011;73376;45.472;-73.568;2023-12-20T08:03:43;2.57;;;1.40;;
83447;SDS011;73376;45.472;-73.568;2023-12-20T08:06:09;3.23;;;1.03;;
83447;SDS011;73376;45.472;-73.568;2023-12-20T08:08:35;3.57;;;1.33;;
83447;SDS011;73376;45.472;-73.568;2023-12-20T08:11:01;2.97;;;1.20;;
83447;SDS011;73376;45.472;-73.568;2023-12-20T08:13:28;2.93;;;1.53;;
83447;SDS011;73376;45.472;-73.568;2023-12-20T08:15:55;2.97;;;1.30;;
83447;SDS011;73376;45.472;-73.568;2023-12-20T08:18:21;2.53;;;1.57;;
83447;SDS011;73376;45.472;-73.568;2023-12-20T08:20:48;1.70;;;1.17;;
83447;SDS011;73376;45.472;-73.568;2023-12-20T08:23:14;5.97;;;2.57;;
83447;SDS011;73376;45.472;-73.568;2023-12-20T08:25:41;2.87;;;1.30;;
83447;SDS011;73376;45.472;-73.568;2023-12-20T08:28:07;6.00;;;1.40;;
83447;SDS011;73376;45.472;-73.568;2023-12-20T08:30:32;3.80;;;1.30;;
83447;SDS011;73376;45.472;-73.568;2023-12-20T08:33:01;3.93;;;1.30;;
83447;SDS011;73376;45.472;-73.568;2023-12-20T08:35:30;1.77;;;0.90;;
83447;SDS011;73376;45.472;-73.568;2023-12-20T08:37:56;2.33;;;1.10;;
83447;SDS011;73376;45.472;-73.568;2023-12-20T08:40:22;1.87;;;1.17;;
83447;SDS011;73376;45.472;-73.568;2023-12-20T08:42:48;2.80;;;1.10;;
83447;SDS011;73376;45.472;-73.568;2023-12-20T08:45:14;1.97;;;1.23;;
83447;SDS011;73376;45.472;-73.568;2023-12-20T08:47:42;2.60;;;1.17;;
83447;SDS011;73376;45.472;-73.568;2023-12-20T08:50:10;2.43;;;1.20;;
83447;SDS011;73376;45.472;-73.568;2023-12-20T08:52:40;2.23;;;1.10;;
83447;SDS011;73376;45.472;-73.568;2023-12-20T08:55:09;2.70;;;1.20;;
83447;SDS011;73376;45.472;-73.568;2023-12-20T08:57:38;3.45;;;1.20;;
83447;SDS011;73376;45.472;-73.568;2023-12-20T09:00:04;2.87;;;1.50;;
83447;SDS011;73376;45.472;-73.568;2023-12-20T09:02:33;1.93;;;1.23;;
83447;SDS011;73376;45.472;-73.568;2023-12-20T09:05:01;3.37;;;1.40;;
83447;SDS011;73376;45.472;-73.568;2023-12-20T09:07:27;1.50;;;1.10;;
83447;SDS011;73376;45.472;-73.568;2023-12-20T09:09:58;2.33;;;1.30;;
83447;SDS011;73376;45.472;-73.568;2023-12-20T09:12:24;2.83;;;1.70;;
83447;SDS011;73376;45.472;-73.568;2023-12-20T09:14:51;6.33;;;1.40;;
83447;SDS011;73376;45.472;-73.568;2023-12-20T09:17:18;2.20;;;1.30;;
83447;SDS011;73376;45.472;-73.568;2023-12-20T09:19:44;2.40;;;1.43;;
83447;SDS011;73376;45.472;-73.568;2023-12-20T09:22:11;3.40;;;1.37;;
83447;SDS011;73376;45.472;-73.568;2023-12-20T09:24:39;2.40;;;1.40;;
83447;SDS011;73376;45.472;-73.568;2023-12-20T09:27:08;2.43;;;1.57;;
83447;SDS011;73376;45.472;-73.568;2023-12-20T09:29:34;2.70;;;1.40;;
83447;SDS011;73376;45.472;-73.568;2023-12-20T09:31:59;2.73;;;1.50;;
83447;SDS011;73376;45.472;-73.568;2023-12-20T09:34:25;2.43;;;1.17;;
83447;SDS011;73376;45.472;-73.568;2023-12-20T09:36:52;4.03;;;1.40;;
83447;SDS011;73376;45.472;-73.568;2023-12-20T09:39:18;4.47;;;1.50;;
83447;SDS011;73376;45.472;-73.568;2023-12-20T09:41:51;3.67;;;1.63;;
83447;SDS011;73376;45.472;-73.568;2023-12-20T09:44:27;3.83;;;1.57;;
83447;SDS011;73376;45.472;-73.568;2023-12-20T09:46:54;2.47;;;1.43;;
83447;SDS011;73376;45.472;-73.568;2023-12-20T09:49:21;2.83;;;1.30;;
83447;SDS011;73376;45.472;-73.568;2023-12-20T09:51:47;4.33;;;1.37;;
83447;SDS011;73376;45.472;-73.568;2023-12-20T09:54:16;4.57;;;1.60;;
83447;SDS011;73376;45.472;-73.568;2023-12-20T09:56:43;4.47;;;1.80;;
83447;SDS011;73376;45.472;-73.568;2023-12-20T09:59:12;2.83;;;1.53;;
83447;SDS011;73376;45.472;-73.568;2023-12-20T10:01:42;4.17;;;1.73;;
83447;SDS011;73376;45.472;-73.568;2023-12-20T10:04:09;9.13;;;2.07;;
83447;SDS011;73376;45.472;-73.568;2023-12-20T10:06:40;3.20;;;1.70;;
83447;SDS011;73376;45.472;-73.568;2023-12-20T10:09:08;4.03;;;2.10;;
83447;SDS011;73376;45.472;-73.568;2023-12-20T10:11:40;3.97;;;1.83;;
83447;SDS011;73376;45.472;-73.568;2023-12-20T10:14:06;3.70;;;1.77;;
83447;SDS011;73376;45.472;-73.568;2023-12-20T10:16:33;4.43;;;2.00;;
83447;SDS011;73376;45.472;-73.568;2023-12-20T10:19:00;5.00;;;1.70;;
83447;SDS011;73376;45.472;-73.568;2023-12-20T10:21:26;4.20;;;2.00;;
83447;SDS011;73376;45.472;-73.568;2023-12-20T10:23:56;4.97;;;1.83;;
83447;SDS011;73376;45.472;-73.568;2023-12-20T10:26:23;4.40;;;1.70;;
83447;SDS011;73376;45.472;-73.568;2023-12-20T10:28:55;3.10;;;1.60;;
83447;SDS011;73376;45.472;-73.568;2023-12-20T10:31:29;2.03;;;1.37;;
83447;SDS011;73376;45.472;-73.568;2023-12-20T10:33:57;4.73;;;1.73;;
83447;SDS011;73376;45.472;-73.568;2023-12-20T10:36:30;6.17;;;1.47;;
83447;SDS011;73376;45.472;-73.568;2023-12-20T10:38:58;3.17;;;1.37;;
83447;SDS011;73376;45.472;-73.568;2023-12-20T10:41:28;2.00;;;1.40;;
83447;SDS011;73376;45.472;-73.568;2023-12-20T10:43:59;3.55;;;1.48;;
83447;SDS011;73376;45.472;-73.568;2023-12-20T10:46:26;3.03;;;1.38;;
83447;SDS011;73376;45.472;-73.568;2023-12-20T10:48:56;3.33;;;1.50;;
83447;SDS011;73376;45.472;-73.568;2023-12-20T10:51:27;5.05;;;1.05;;
83447;SDS011;73376;45.472;-73.568;2023-12-20T10:53:55;4.23;;;1.50;;
83447;SDS011;73376;45.472;-73.568;2023-12-20T10:56:22;2.77;;;1.53;;
83447;SDS011;73376;45.472;-73.568;2023-12-20T10:58:51;5.17;;;1.50;;
83447;SDS011;73376;45.472;-73.568;2023-12-20T11:01:18;2.40;;;1.37;;
83447;SDS011;73376;45.472;-73.568;2023-12-20T11:03:48;5.90;;;1.57;;
83447;SDS011;73376;45.472;-73.568;2023-12-20T11:08:55;6.03;;;2.00;;
83447;SDS011;73376;45.472;-73.568;2023-12-20T11:12:21;4.73;;;2.20;;
83447;SDS011;73376;45.472;-73.568;2023-12-20T11:14:40;5.07;;;1.87;;
83447;SDS011;73376;45.472;-73.568;2023-12-20T11:17:16;4.30;;;1.73;;
83447;SDS011;73376;45.472;-73.568;2023-12-20T11:22:25;4.17;;;1.70;;
83447;SDS011;73376;45.472;-73.568;2023-12-20T11:24:53;3.63;;;1.92;;
83447;SDS011;73376;45.472;-73.568;2023-12-20T11:27:26;5.03;;;1.60;;
83447;SDS011;73376;45.472;-73.568;2023-12-20T11:29:52;4.80;;;1.67;;
83447;SDS011;73376;45.472;-73.568;2023-12-20T11:34:58;2.63;;;1.57;;
83447;SDS011;73376;45.472;-73.568;2023-12-20T11:37:31;3.30;;;1.60;;
83447;SDS011;73376;45.472;-73.568;2023-12-20T11:40:01;6.97;;;1.70;;
83447;SDS011;73376;45.472;-73.568;2023-12-20T11:42:50;3.07;;;1.43;;
83447;SDS011;73376;45.472;-73.568;2023-12-20T11:45:20;3.50;;;1.57;;
83447;SDS011;73376;45.472;-73.568;2023-12-20T11:47:49;7.27;;;1.77;;
83447;SDS011;73376;45.472;-73.568;2023-12-20T11:50:16;4.23;;;1.77;;
83447;SDS011;73376;45.472;-73.568;2023-12-20T11:52:43;9.93;;;1.73;;
83447;SDS011;73376;45.472;-73.568;2023-12-20T11:55:09;6.23;;;2.00;;
83447;SDS011;73376;45.472;-73.568;2023-12-20T11:57:35;6.03;;;1.80;;
83447;SDS011;73376;45.472;-73.568;2023-12-20T12:00:02;6.57;;;1.50;;
83447;SDS011;73376;45.472;-73.568;2023-12-20T12:02:29;7.90;;;2.00;;
83447;SDS011;73376;45.472;-73.568;2023-12-20T12:04:55;9.80;;;1.60;;
83447;SDS011;73376;45.472;-73.568;2023-12-20T12:07:23;9.10;;;1.70;;
83447;SDS011;73376;45.472;-73.568;2023-12-20T12:09:52;7.27;;;1.50;;
83447;SDS011;73376;45.472;-73.568;2023-12-20T12:12:21;10.97;;;2.07;;
83447;SDS011;73376;45.472;-73.568;2023-12-20T12:14:47;8.70;;;2.00;;
83447;SDS011;73376;45.472;-73.568;2023-12-20T12:17:14;11.33;;;2.07;;
83447;SDS011;73376;45.472;-73.568;2023-12-20T12:19:41;12.53;;;1.90;;
83447;SDS011;73376;45.472;-73.568;2023-12-20T12:22:08;8.07;;;2.00;;
83447;SDS011;73376;45.472;-73.568;2023-12-20T12:24:42;3.20;;;1.87;;
83447;SDS011;73376;45.472;-73.568;2023-12-20T12:27:09;8.57;;;2.17;;
83447;SDS011;73376;45.472;-73.568;2023-12-20T12:29:38;9.60;;;3.23;;
83447;SDS011;73376;45.472;-73.568;2023-12-20T12:32:05;3.03;;;1.73;;
83447;SDS011;73376;45.472;-73.568;2023-12-20T12:34:32;6.57;;;1.90;;
83447;SDS011;73376;45.472;-73.568;2023-12-20T12:36:59;5.33;;;2.93;;
83447;SDS011;73376;45.472;-73.568;2023-12-20T12:39:25;3.80;;;2.10;;
83447;SDS011;73376;45.472;-73.568;2023-12-20T12:41:52;10.83;;;2.00;;
83447;SDS011;73376;45.472;-73.568;2023-12-20T12:44:21;10.67;;;2.20;;
83447;SDS011;73376;45.472;-73.568;2023-12-20T12:46:48;6.00;;;1.70;;
83447;SDS011;73376;45.472;-73.568;2023-12-20T12:49:16;6.50;;;1.90;;
83447;SDS011;73376;45.472;-73.568;2023-12-20T12:51:42;5.63;;;2.10;;
83447;SDS011;73376;45.472;-73.568;2023-12-20T12:54:09;8.17;;;2.07;;
83447;SDS011;73376;45.472;-73.568;2023-12-20T12:56:36;10.73;;;1.90;;
83447;SDS011;73376;45.472;-73.568;2023-12-20T12:59:02;4.87;;;1.50;;
83447;SDS011;73376;45.472;-73.568;2023-12-20T13:01:28;13.67;;;1.90;;
83447;SDS011;73376;45.472;-73.568;2023-12-20T13:03:54;9.07;;;1.80;;
83447;SDS011;73376;45.472;-73.568;2023-12-20T13:06:20;8.43;;;2.20;;
83447;SDS011;73376;45.472;-73.568;2023-12-20T13:08:46;3.77;;;2.27;;
83447;SDS011;73376;45.472;-73.568;2023-12-20T13:11:12;8.87;;;2.20;;
83447;SDS011;73376;45.472;-73.568;2023-12-20T13:13:38;5.97;;;1.77;;
83447;SDS011;73376;45.472;-73.568;2023-12-20T13:16:04;7.73;;;1.77;;
83447;SDS011;73376;45.472;-73.568;2023-12-20T13:18:30;8.23;;;1.97;;
83447;SDS011;73376;45.472;-73.568;2023-12-20T13:20:56;9.23;;;2.43;;
83447;SDS011;73376;45.472;-73.568;2023-12-20T13:23:24;6.77;;;1.87;;
83447;SDS011;73376;45.472;-73.568;2023-12-20T13:25:50;11.93;;;2.07;;
83447;SDS011;73376;45.472;-73.568;2023-12-20T13:28:16;7.07;;;2.53;;
83447;SDS011;73376;45.472;-73.568;2023-12-20T13:30:42;5.07;;;1.90;;
83447;SDS011;73376;45.472;-73.568;2023-12-20T13:33:11;3.57;;;1.53;;
83447;SDS011;73376;45.472;-73.568;2023-12-20T13:35:37;9.40;;;1.83;;
83447;SDS011;73376;45.472;-73.568;2023-12-20T13:38:04;5.23;;;1.77;;
83447;SDS011;73376;45.472;-73.568;2023-12-20T13:40:30;3.03;;;1.60;;
83447;SDS011;73376;45.472;-73.568;2023-12-20T13:42:57;1.90;;;1.40;;
83447;SDS011;73376;45.472;-73.568;2023-12-20T13:45:23;2.47;;;1.40;;
83447;SDS011;73376;45.472;-73.568;2023-12-20T13:47:50;2.90;;;1.60;;
83447;SDS011;73376;45.472;-73.568;2023-12-20T13:50:16;7.20;;;1.60;;
83447;SDS011;73376;45.472;-73.568;2023-12-20T13:52:42;3.40;;;1.37;;
83447;SDS011;73376;45.472;-73.568;2023-12-20T13:55:09;6.47;;;1.80;;
83447;SDS011;73376;45.472;-73.568;2023-12-20T13:57:35;2.53;;;1.30;;
83447;SDS011;73376;45.472;-73.568;2023-12-20T14:00:03;6.00;;;1.60;;
83447;SDS011;73376;45.472;-73.568;2023-12-20T14:02:39;2.80;;;1.50;;
83447;SDS011;73376;45.472;-73.568;2023-12-20T14:05:08;7.73;;;1.60;;
83447;SDS011;73376;45.472;-73.568;2023-12-20T14:07:35;5.07;;;1.40;;
83447;SDS011;73376;45.472;-73.568;2023-12-20T14:10:04;3.80;;;1.50;;
83447;SDS011;73376;45.472;-73.568;2023-12-20T14:12:33;5.33;;;2.33;;
83447;SDS011;73376;45.472;-73.568;2023-12-20T14:15:01;2.93;;;1.60;;
83447;SDS011;73376;45.472;-73.568;2023-12-20T14:17:27;2.17;;;1.40;;
83447;SDS011;73376;45.472;-73.568;2023-12-20T14:19:54;6.30;;;1.93;;
83447;SDS011;73376;45.472;-73.568;2023-12-20T14:22:20;4.93;;;1.87;;
83447;SDS011;73376;45.472;-73.568;2023-12-20T14:24:46;4.20;;;2.13;;
83447;SDS011;73376;45.472;-73.568;2023-12-20T14:27:12;6.80;;;1.60;;
83447;SDS011;73376;45.472;-73.568;2023-12-20T14:29:38;2.67;;;1.50;;